Middletown, Delaware
Current Conditions -  °F | °C
As of 8:29 AM on Wednesday 22 Oct 2014 (Local Time) from KILG Reporting Station
Overcast Overcast  
Wind Chill: 56°   Ceiling: 8500
Heat Index: 56°   Visibility: 10mi
Dew Point: 53°   Wind: 12mph
Humidity: 90%   Direction: 20°NNE
Pressure: 29.89"   Gusts: NA
Location:  39.45°N, 75.72°W
Report Text: KILG 221229Z 02010KT 10SM FEW015 SCT027 OVC085 13/12 A2989 RMK AO2 RAE20 P0000 T01330117
Loading
Personal Weather Stations






























Interactive Weather Map
Tropical Storm Tracking
New forecast layout! Learn more

10-Day Weather Forecast

Advertisements
Track Severe Weather on mobile